KJRB/JRB METAR and TAF weather

Enter ICAO airport designator
Station Type Date Time Source
KJRB METAR 2019/08/23 15:20 UTC NOAA

KJRB 231520Z AUTO 08004KT 10SM SCT020 BKN033 OVC110 21/17 A3002 RMK AO2 RAE04 PNO $


Station Type Date Time Source
KJRB Decoded METAR 2019/08/23 15:20 UTC NOAA

Station name not available
Aug 23, 2019 - 11:20 AM EDT / 2019.08.23 1520 UTC
Wind: from the E (080 degrees) at 5 MPH (4 KT):0
Visibility: 10 mile(s):0
Sky conditions: overcast
Temperature: 69 F (21 C)
Dew Point: 62 F (17 C)
Relative Humidity: 77%
Pressure (altimeter): 30.02 in. Hg (1016 hPa)
ob: KJRB 231520Z AUTO 08004KT 10SM SCT020 BKN033 OVC110 21/17 A3002 RMK AO2 RAE04 PNO
cycle: 15

Station Type Date Time Source
KJRB TAF UTC NOAA

Error!

Example: see airport list